sensor_id;sensor_type;location;lat;lon;timestamp;temperature;humidity
58582;DHT22;44361;51.476;5.700;2023-02-11T00:00:58;6.50;99.90
58582;DHT22;44361;51.476;5.700;2023-02-11T00:03:24;6.50;99.90
58582;DHT22;44361;51.476;5.700;2023-02-11T00:06:00;6.40;99.90
58582;DHT22;44361;51.476;5.700;2023-02-11T00:08:26;6.40;99.90
58582;DHT22;44361;51.476;5.700;2023-02-11T00:10:56;6.40;99.90
58582;DHT22;44361;51.476;5.700;2023-02-11T00:13:23;6.50;99.90
58582;DHT22;44361;51.476;5.700;2023-02-11T00:15:49;6.50;99.90
58582;DHT22;44361;51.476;5.700;2023-02-11T00:18:15;6.50;99.90
58582;DHT22;44361;51.476;5.700;2023-02-11T00:20:41;6.50;99.90
58582;DHT22;44361;51.476;5.700;2023-02-11T00:23:07;6.50;99.90
58582;DHT22;44361;51.476;5.700;2023-02-11T00:25:33;6.60;99.90
58582;DHT22;44361;51.476;5.700;2023-02-11T00:27:59;6.50;99.90
58582;DHT22;44361;51.476;5.700;2023-02-11T00:30:24;6.50;99.90
58582;DHT22;44361;51.476;5.700;2023-02-11T00:32:50;6.50;99.90
58582;DHT22;44361;51.476;5.700;2023-02-11T00:35:15;6.50;99.90
58582;DHT22;44361;51.476;5.700;2023-02-11T00:37:41;6.50;99.90
58582;DHT22;44361;51.476;5.700;2023-02-11T00:40:07;6.60;99.90
58582;DHT22;44361;51.476;5.700;2023-02-11T00:42:33;6.50;99.90
58582;DHT22;44361;51.476;5.700;2023-02-11T00:45:02;6.50;99.90
58582;DHT22;44361;51.476;5.700;2023-02-11T00:47:28;6.50;99.90
58582;DHT22;44361;51.476;5.700;2023-02-11T00:49:53;6.60;99.90
58582;DHT22;44361;51.476;5.700;2023-02-11T00:52:19;6.60;99.90
58582;DHT22;44361;51.476;5.700;2023-02-11T00:54:44;6.50;99.90
58582;DHT22;44361;51.476;5.700;2023-02-11T00:57:10;6.50;99.90
58582;DHT22;44361;51.476;5.700;2023-02-11T00:59:35;6.60;99.90
58582;DHT22;44361;51.476;5.700;2023-02-11T01:02:01;6.60;99.90
58582;DHT22;44361;51.476;5.700;2023-02-11T01:04:27;6.60;99.90
58582;DHT22;44361;51.476;5.700;2023-02-11T01:06:52;6.50;99.90
58582;DHT22;44361;51.476;5.700;2023-02-11T01:09:18;6.50;99.90
58582;DHT22;44361;51.476;5.700;2023-02-11T01:11:45;6.50;99.90
58582;DHT22;44361;51.476;5.700;2023-02-11T01:14:11;6.40;99.90
58582;DHT22;44361;51.476;5.700;2023-02-11T01:16:36;6.40;99.90
58582;DHT22;44361;51.476;5.700;2023-02-11T01:19:02;6.50;99.90
58582;DHT22;44361;51.476;5.700;2023-02-11T01:21:27;6.40;99.90
58582;DHT22;44361;51.476;5.700;2023-02-11T01:23:53;6.50;99.90
58582;DHT22;44361;51.476;5.700;2023-02-11T01:26:18;6.50;99.90
58582;DHT22;44361;51.476;5.700;2023-02-11T01:28:44;6.50;99.90
58582;DHT22;44361;51.476;5.700;2023-02-11T01:31:09;6.50;99.90
58582;DHT22;44361;51.476;5.700;2023-02-11T01:33:35;6.50;99.90
58582;DHT22;44361;51.476;5.700;2023-02-11T01:36:02;6.50;99.90
58582;DHT22;44361;51.476;5.700;2023-02-11T01:38:28;6.50;99.90
58582;DHT22;44361;51.476;5.700;2023-02-11T01:40:59;6.50;99.90
58582;DHT22;44361;51.476;5.700;2023-02-11T01:43:27;6.50;99.90
58582;DHT22;44361;51.476;5.700;2023-02-11T01:46:01;6.50;99.90
58582;DHT22;44361;51.476;5.700;2023-02-11T01:48:35;6.50;99.90
58582;DHT22;44361;51.476;5.700;2023-02-11T01:51:53;6.40;99.90
58582;DHT22;44361;51.476;5.700;2023-02-11T01:53:53;6.40;99.90
58582;DHT22;44361;51.476;5.700;2023-02-11T01:56:41;6.40;99.90
58582;DHT22;44361;51.476;5.700;2023-02-11T01:59:33;6.40;99.90
58582;DHT22;44361;51.476;5.700;2023-02-11T02:02:04;6.40;99.90
58582;DHT22;44361;51.476;5.700;2023-02-11T02:04:37;6.40;99.90
58582;DHT22;44361;51.476;5.700;2023-02-11T02:07:11;6.40;99.90
58582;DHT22;44361;51.476;5.700;2023-02-11T02:09:42;6.30;99.90
58582;DHT22;44361;51.476;5.700;2023-02-11T02:12:09;6.30;99.90
58582;DHT22;44361;51.476;5.700;2023-02-11T02:14:39;6.30;99.90
58582;DHT22;44361;51.476;5.700;2023-02-11T02:17:06;6.30;99.90
58582;DHT22;44361;51.476;5.700;2023-02-11T02:20:27;6.30;99.90
58582;DHT22;44361;51.476;5.700;2023-02-11T02:23:23;6.30;99.90
58582;DHT22;44361;51.476;5.700;2023-02-11T02:37:14;6.30;99.90
58582;DHT22;44361;51.476;5.700;2023-02-11T02:39:42;6.20;99.90
58582;DHT22;44361;51.476;5.700;2023-02-11T02:42:09;6.30;99.90
58582;DHT22;44361;51.476;5.700;2023-02-11T02:44:35;6.30;99.90
58582;DHT22;44361;51.476;5.700;2023-02-11T02:47:01;6.30;99.90
58582;DHT22;44361;51.476;5.700;2023-02-11T02:49:26;6.30;99.90
58582;DHT22;44361;51.476;5.700;2023-02-11T02:57:38;6.30;99.90
58582;DHT22;44361;51.476;5.700;2023-02-11T03:00:22;6.30;99.90
58582;DHT22;44361;51.476;5.700;2023-02-11T03:03:29;6.30;99.90
58582;DHT22;44361;51.476;5.700;2023-02-11T03:08:42;6.30;99.90
58582;DHT22;44361;51.476;5.700;2023-02-11T03:11:10;6.30;99.90
58582;DHT22;44361;51.476;5.700;2023-02-11T03:13:39;6.30;99.90
58582;DHT22;44361;51.476;5.700;2023-02-11T03:16:14;6.30;99.90
58582;DHT22;44361;51.476;5.700;2023-02-11T03:18:41;6.30;99.90
58582;DHT22;44361;51.476;5.700;2023-02-11T03:21:09;6.30;99.90
58582;DHT22;44361;51.476;5.700;2023-02-11T03:23:39;6.30;99.90
58582;DHT22;44361;51.476;5.700;2023-02-11T03:26:10;6.20;99.90
58582;DHT22;44361;51.476;5.700;2023-02-11T03:28:54;6.20;99.90
58582;DHT22;44361;51.476;5.700;2023-02-11T03:37:10;6.20;99.90
58582;DHT22;44361;51.476;5.700;2023-02-11T03:39:42;6.20;99.90
58582;DHT22;44361;51.476;5.700;2023-02-11T03:42:11;6.20;99.90
58582;DHT22;44361;51.476;5.700;2023-02-11T03:44:48;6.20;99.90
58582;DHT22;44361;51.476;5.700;2023-02-11T03:47:16;6.20;99.90
58582;DHT22;44361;51.476;5.700;2023-02-11T03:49:44;6.20;99.90
58582;DHT22;44361;51.476;5.700;2023-02-11T03:52:11;6.20;99.90
58582;DHT22;44361;51.476;5.700;2023-02-11T03:54:40;6.30;99.90
58582;DHT22;44361;51.476;5.700;2023-02-11T03:57:07;6.30;99.90
58582;DHT22;44361;51.476;5.700;2023-02-11T03:59:49;6.30;99.90
58582;DHT22;44361;51.476;5.700;2023-02-11T04:02:14;6.30;99.90
58582;DHT22;44361;51.476;5.700;2023-02-11T04:04:40;6.30;99.90
58582;DHT22;44361;51.476;5.700;2023-02-11T04:07:05;6.30;99.90
58582;DHT22;44361;51.476;5.700;2023-02-11T04:09:31;6.30;99.90
58582;DHT22;44361;51.476;5.700;2023-02-11T04:11:57;6.30;99.90
58582;DHT22;44361;51.476;5.700;2023-02-11T04:14:22;6.40;99.90
58582;DHT22;44361;51.476;5.700;2023-02-11T04:16:48;6.40;99.90
58582;DHT22;44361;51.476;5.700;2023-02-11T04:19:13;6.30;99.90
58582;DHT22;44361;51.476;5.700;2023-02-11T04:21:39;6.30;99.90
58582;DHT22;44361;51.476;5.700;2023-02-11T04:24:04;6.30;99.90
58582;DHT22;44361;51.476;5.700;2023-02-11T04:26:30;6.40;99.90
58582;DHT22;44361;51.476;5.700;2023-02-11T04:28:55;6.40;99.90
58582;DHT22;44361;51.476;5.700;2023-02-11T04:31:21;6.40;99.90
58582;DHT22;44361;51.476;5.700;2023-02-11T04:33:46;6.40;99.90
58582;DHT22;44361;51.476;5.700;2023-02-11T04:36:12;6.30;99.90
58582;DHT22;44361;51.476;5.700;2023-02-11T04:38:38;6.30;99.90
58582;DHT22;44361;51.476;5.700;2023-02-11T04:41:03;6.30;99.90
58582;DHT22;44361;51.476;5.700;2023-02-11T04:43:29;6.30;99.90
58582;DHT22;44361;51.476;5.700;2023-02-11T04:45:58;6.40;99.90
58582;DHT22;44361;51.476;5.700;2023-02-11T04:48:24;6.40;99.90
58582;DHT22;44361;51.476;5.700;2023-02-11T04:50:49;6.40;99.90
58582;DHT22;44361;51.476;5.700;2023-02-11T04:53:15;6.40;99.90
58582;DHT22;44361;51.476;5.700;2023-02-11T04:55:40;6.40;99.90
58582;DHT22;44361;51.476;5.700;2023-02-11T04:58:06;6.40;99.90
58582;DHT22;44361;51.476;5.700;2023-02-11T05:00:31;6.40;99.90
58582;DHT22;44361;51.476;5.700;2023-02-11T05:02:57;6.40;99.90
58582;DHT22;44361;51.476;5.700;2023-02-11T05:05:22;6.40;99.90
58582;DHT22;44361;51.476;5.700;2023-02-11T05:07:48;6.40;99.90
58582;DHT22;44361;51.476;5.700;2023-02-11T05:10:13;6.40;99.90
58582;DHT22;44361;51.476;5.700;2023-02-11T05:12:39;6.50;99.90
58582;DHT22;44361;51.476;5.700;2023-02-11T05:15:05;6.50;99.90
58582;DHT22;44361;51.476;5.700;2023-02-11T05:17:30;6.50;99.90
58582;DHT22;44361;51.476;5.700;2023-02-11T05:19:56;6.50;99.90
58582;DHT22;44361;51.476;5.700;2023-02-11T05:22:21;6.50;99.90
58582;DHT22;44361;51.476;5.700;2023-02-11T05:24:47;6.40;99.90
58582;DHT22;44361;51.476;5.700;2023-02-11T05:27:13;6.50;99.90
58582;DHT22;44361;51.476;5.700;2023-02-11T05:29:38;6.50;99.90
58582;DHT22;44361;51.476;5.700;2023-02-11T05:32:04;6.50;99.90
58582;DHT22;44361;51.476;5.700;2023-02-11T05:34:29;6.50;99.90
58582;DHT22;44361;51.476;5.700;2023-02-11T05:36:55;6.50;99.90
58582;DHT22;44361;51.476;5.700;2023-02-11T05:39:20;6.50;99.90
58582;DHT22;44361;51.476;5.700;2023-02-11T05:41:46;6.50;99.90
58582;DHT22;44361;51.476;5.700;2023-02-11T05:44:11;6.40;99.90
58582;DHT22;44361;51.476;5.700;2023-02-11T05:46:37;6.50;99.90
58582;DHT22;44361;51.476;5.700;2023-02-11T05:49:03;6.50;99.90
58582;DHT22;44361;51.476;5.700;2023-02-11T05:51:28;6.50;99.90
58582;DHT22;44361;51.476;5.700;2023-02-11T05:53:54;6.50;99.90
58582;DHT22;44361;51.476;5.700;2023-02-11T05:56:19;6.50;99.90
58582;DHT22;44361;51.476;5.700;2023-02-11T05:58:45;6.50;99.90
58582;DHT22;44361;51.476;5.700;2023-02-11T06:01:10;6.50;99.90
58582;DHT22;44361;51.476;5.700;2023-02-11T06:03:36;6.50;99.90
58582;DHT22;44361;51.476;5.700;2023-02-11T06:06:01;6.50;99.90
58582;DHT22;44361;51.476;5.700;2023-02-11T06:08:27;6.50;99.90
58582;DHT22;44361;51.476;5.700;2023-02-11T06:10:52;6.50;99.90
58582;DHT22;44361;51.476;5.700;2023-02-11T06:13:18;6.50;99.90
58582;DHT22;44361;51.476;5.700;2023-02-11T06:15:44;6.60;99.90
58582;DHT22;44361;51.476;5.700;2023-02-11T06:18:09;6.50;99.90
58582;DHT22;44361;51.476;5.700;2023-02-11T06:20:35;6.50;99.90
58582;DHT22;44361;51.476;5.700;2023-02-11T06:23:01;6.50;99.90
58582;DHT22;44361;51.476;5.700;2023-02-11T06:25:27;6.50;99.90
58582;DHT22;44361;51.476;5.700;2023-02-11T06:27:52;6.50;99.90
58582;DHT22;44361;51.476;5.700;2023-02-11T06:30:18;6.50;99.90
58582;DHT22;44361;51.476;5.700;2023-02-11T06:32:43;6.60;99.90
58582;DHT22;44361;51.476;5.700;2023-02-11T06:35:09;6.50;99.90
58582;DHT22;44361;51.476;5.700;2023-02-11T06:37:34;6.50;99.90
58582;DHT22;44361;51.476;5.700;2023-02-11T06:40:00;6.50;99.90
58582;DHT22;44361;51.476;5.700;2023-02-11T06:42:26;6.50;99.90
58582;DHT22;44361;51.476;5.700;2023-02-11T06:44:51;6.50;99.90
58582;DHT22;44361;51.476;5.700;2023-02-11T06:47:16;6.50;99.90
58582;DHT22;44361;51.476;5.700;2023-02-11T06:49:42;6.50;99.90
58582;DHT22;44361;51.476;5.700;2023-02-11T06:52:07;6.50;99.90
58582;DHT22;44361;51.476;5.700;2023-02-11T06:54:33;6.50;99.90
58582;DHT22;44361;51.476;5.700;2023-02-11T06:56:58;6.60;99.90
58582;DHT22;44361;51.476;5.700;2023-02-11T06:59:24;6.60;99.90
58582;DHT22;44361;51.476;5.700;2023-02-11T07:01:50;6.60;99.90
58582;DHT22;44361;51.476;5.700;2023-02-11T07:04:15;6.60;99.90
58582;DHT22;44361;51.476;5.700;2023-02-11T07:06:41;6.60;99.90
58582;DHT22;44361;51.476;5.700;2023-02-11T07:09:06;6.60;99.90
58582;DHT22;44361;51.476;5.700;2023-02-11T07:11:32;6.60;99.90
58582;DHT22;44361;51.476;5.700;2023-02-11T07:14:06;6.60;99.90
58582;DHT22;44361;51.476;5.700;2023-02-11T07:16:34;6.60;99.90
58582;DHT22;44361;51.476;5.700;2023-02-11T07:18:59;6.70;99.90
58582;DHT22;44361;51.476;5.700;2023-02-11T07:21:25;6.70;99.90
58582;DHT22;44361;51.476;5.700;2023-02-11T07:23:51;6.70;99.90
58582;DHT22;44361;51.476;5.700;2023-02-11T07:26:20;6.60;99.90
58582;DHT22;44361;51.476;5.700;2023-02-11T07:28:53;6.70;99.90
58582;DHT22;44361;51.476;5.700;2023-02-11T07:31:24;6.70;99.90
58582;DHT22;44361;51.476;5.700;2023-02-11T07:33:55;6.70;99.90
58582;DHT22;44361;51.476;5.700;2023-02-11T07:36:21;6.70;99.90
58582;DHT22;44361;51.476;5.700;2023-02-11T07:38:47;6.80;99.90
58582;DHT22;44361;51.476;5.700;2023-02-11T07:41:15;6.80;99.90
58582;DHT22;44361;51.476;5.700;2023-02-11T07:43:42;6.80;99.90
58582;DHT22;44361;51.476;5.700;2023-02-11T07:46:20;6.80;99.90
58582;DHT22;44361;51.476;5.700;2023-02-11T07:48:46;6.90;99.90
58582;DHT22;44361;51.476;5.700;2023-02-11T07:51:24;6.90;99.90
58582;DHT22;44361;51.476;5.700;2023-02-11T07:53:50;6.90;99.90
58582;DHT22;44361;51.476;5.700;2023-02-11T07:56:17;6.90;99.90
58582;DHT22;44361;51.476;5.700;2023-02-11T07:58:43;7.00;99.90
58582;DHT22;44361;51.476;5.700;2023-02-11T08:01:12;7.00;99.90
58582;DHT22;44361;51.476;5.700;2023-02-11T08:03:38;7.00;99.90
58582;DHT22;44361;51.476;5.700;2023-02-11T08:09:26;7.10;99.90
58582;DHT22;44361;51.476;5.700;2023-02-11T08:11:52;7.10;99.90
58582;DHT22;44361;51.476;5.700;2023-02-11T08:14:17;7.00;99.90
58582;DHT22;44361;51.476;5.700;2023-02-11T08:16:44;7.00;99.90
58582;DHT22;44361;51.476;5.700;2023-02-11T08:19:13;7.00;99.90
58582;DHT22;44361;51.476;5.700;2023-02-11T08:21:39;7.10;99.90
58582;DHT22;44361;51.476;5.700;2023-02-11T08:24:05;7.10;99.90
58582;DHT22;44361;51.476;5.700;2023-02-11T08:26:32;7.10;99.90
58582;DHT22;44361;51.476;5.700;2023-02-11T08:28:59;7.10;99.90
58582;DHT22;44361;51.476;5.700;2023-02-11T08:31:28;7.10;99.90
58582;DHT22;44361;51.476;5.700;2023-02-11T08:33:54;7.10;99.90
58582;DHT22;44361;51.476;5.700;2023-02-11T08:36:26;7.10;99.90
58582;DHT22;44361;51.476;5.700;2023-02-11T08:38:54;7.10;99.90
58582;DHT22;44361;51.476;5.700;2023-02-11T08:41:19;7.20;99.90
58582;DHT22;44361;51.476;5.700;2023-02-11T08:43:45;7.20;99.90
58582;DHT22;44361;51.476;5.700;2023-02-11T08:46:13;7.20;99.90
58582;DHT22;44361;51.476;5.700;2023-02-11T08:48:39;7.20;99.90
58582;DHT22;44361;51.476;5.700;2023-02-11T08:51:09;7.30;99.90
58582;DHT22;44361;51.476;5.700;2023-02-11T08:53:36;7.30;99.90
58582;DHT22;44361;51.476;5.700;2023-02-11T08:56:01;7.30;99.90
58582;DHT22;44361;51.476;5.700;2023-02-11T08:58:27;7.30;99.90
58582;DHT22;44361;51.476;5.700;2023-02-11T09:00:53;7.40;99.90
58582;DHT22;44361;51.476;5.700;2023-02-11T09:03:18;7.40;99.90
58582;DHT22;44361;51.476;5.700;2023-02-11T09:05:46;7.40;99.90
58582;DHT22;44361;51.476;5.700;2023-02-11T09:08:12;7.40;99.90
58582;DHT22;44361;51.476;5.700;2023-02-11T09:10:38;7.50;99.90
58582;DHT22;44361;51.476;5.700;2023-02-11T09:13:04;7.50;99.90
58582;DHT22;44361;51.476;5.700;2023-02-11T09:15:30;7.40;99.90
58582;DHT22;44361;51.476;5.700;2023-02-11T09:17:56;7.50;99.90
58582;DHT22;44361;51.476;5.700;2023-02-11T09:20:22;7.50;99.90
58582;DHT22;44361;51.476;5.700;2023-02-11T09:22:48;7.50;99.90
58582;DHT22;44361;51.476;5.700;2023-02-11T09:25:13;7.50;99.90
58582;DHT22;44361;51.476;5.700;2023-02-11T09:27:39;7.50;99.90
58582;DHT22;44361;51.476;5.700;2023-02-11T09:30:05;7.60;99.90
58582;DHT22;44361;51.476;5.700;2023-02-11T09:32:30;7.60;99.90
58582;DHT22;44361;51.476;5.700;2023-02-11T09:34:56;7.60;99.90
58582;DHT22;44361;51.476;5.700;2023-02-11T09:37:21;7.70;99.90
58582;DHT22;44361;51.476;5.700;2023-02-11T09:39:47;7.70;99.90
58582;DHT22;44361;51.476;5.700;2023-02-11T09:42:36;7.70;99.90
58582;DHT22;44361;51.476;5.700;2023-02-11T09:45:04;7.70;99.90
58582;DHT22;44361;51.476;5.700;2023-02-11T09:47:35;7.70;99.90
58582;DHT22;44361;51.476;5.700;2023-02-11T09:50:06;7.70;99.90
58582;DHT22;44361;51.476;5.700;2023-02-11T09:52:58;7.70;99.90
58582;DHT22;44361;51.476;5.700;2023-02-11T09:55:32;7.70;99.90
58582;DHT22;44361;51.476;5.700;2023-02-11T09:58:03;7.70;99.90
58582;DHT22;44361;51.476;5.700;2023-02-11T10:00:39;7.70;99.90
58582;DHT22;44361;51.476;5.700;2023-02-11T10:03:35;7.70;99.90
58582;DHT22;44361;51.476;5.700;2023-02-11T10:09:27;7.80;99.90
58582;DHT22;44361;51.476;5.700;2023-02-11T10:17:49;7.90;99.90
58582;DHT22;44361;51.476;5.700;2023-02-11T10:20:43;8.00;99.90
58582;DHT22;44361;51.476;5.700;2023-02-11T10:23:18;8.00;99.90
58582;DHT22;44361;51.476;5.700;2023-02-11T10:25:51;8.00;99.90
58582;DHT22;44361;51.476;5.700;2023-02-11T10:28:21;7.90;99.90
58582;DHT22;44361;51.476;5.700;2023-02-11T10:31:06;8.00;99.90
58582;DHT22;44361;51.476;5.700;2023-02-11T10:36:29;8.10;99.90
58582;DHT22;44361;51.476;5.700;2023-02-11T10:38:57;8.20;99.90
58582;DHT22;44361;51.476;5.700;2023-02-11T10:41:31;8.30;99.90
58582;DHT22;44361;51.476;5.700;2023-02-11T10:44:01;8.40;99.90
58582;DHT22;44361;51.476;5.700;2023-02-11T10:46:32;8.40;99.90
58582;DHT22;44361;51.476;5.700;2023-02-11T10:49:00;8.50;99.90
58582;DHT22;44361;51.476;5.700;2023-02-11T10:51:30;8.50;99.90
58582;DHT22;44361;51.476;5.700;2023-02-11T10:56:34;8.50;99.90
58582;DHT22;44361;51.476;5.700;2023-02-11T11:01:42;8.50;99.90
58582;DHT22;44361;51.476;5.700;2023-02-11T11:04:33;8.50;99.90
58582;DHT22;44361;51.476;5.700;2023-02-11T11:07:32;8.40;99.90
58582;DHT22;44361;51.476;5.700;2023-02-11T11:17:37;8.50;99.90
58582;DHT22;44361;51.476;5.700;2023-02-11T11:20:26;8.50;99.90
58582;DHT22;44361;51.476;5.700;2023-02-11T11:23:18;8.50;99.90
58582;DHT22;44361;51.476;5.700;2023-02-11T11:28:29;8.60;99.90
58582;DHT22;44361;51.476;5.700;2023-02-11T11:30:56;8.60;99.90
58582;DHT22;44361;51.476;5.700;2023-02-11T11:33:26;8.70;99.90
58582;DHT22;44361;51.476;5.700;2023-02-11T11:36:07;8.80;99.90
58582;DHT22;44361;51.476;5.700;2023-02-11T11:38:37;8.80;99.90
58582;DHT22;44361;51.476;5.700;2023-02-11T11:43:57;8.90;99.90
58582;DHT22;44361;51.476;5.700;2023-02-11T11:48:59;8.90;99.90
58582;DHT22;44361;51.476;5.700;2023-02-11T11:51:28;9.00;99.90
58582;DHT22;44361;51.476;5.700;2023-02-11T11:54:12;9.00;99.90
58582;DHT22;44361;51.476;5.700;2023-02-11T11:56:49;9.00;99.90
58582;DHT22;44361;51.476;5.700;2023-02-11T11:59:16;9.00;99.90
58582;DHT22;44361;51.476;5.700;2023-02-11T12:04:48;9.00;99.90
58582;DHT22;44361;51.476;5.700;2023-02-11T12:07:47;9.00;99.90
58582;DHT22;44361;51.476;5.700;2023-02-11T12:21:55;9.60;99.90
58582;DHT22;44361;51.476;5.700;2023-02-11T12:33:03;10.00;99.90
58582;DHT22;44361;51.476;5.700;2023-02-11T12:35:51;10.10;99.90
58582;DHT22;44361;51.476;5.700;2023-02-11T12:38:34;10.10;99.90
58582;DHT22;44361;51.476;5.700;2023-02-11T12:41:08;10.20;99.90
58582;DHT22;44361;51.476;5.700;2023-02-11T12:43:38;10.40;99.90
58582;DHT22;44361;51.476;5.700;2023-02-11T12:46:19;10.20;99.90
58582;DHT22;44361;51.476;5.700;2023-02-11T12:54:26;10.30;99.90
58582;DHT22;44361;51.476;5.700;2023-02-11T12:57:06;10.40;99.90
58582;DHT22;44361;51.476;5.700;2023-02-11T12:59:46;10.50;99.90
58582;DHT22;44361;51.476;5.700;2023-02-11T13:04:53;10.70;99.90
58582;DHT22;44361;51.476;5.700;2023-02-11T13:07:29;10.90;99.90
58582;DHT22;44361;51.476;5.700;2023-02-11T13:10:02;11.10;99.90
58582;DHT22;44361;51.476;5.700;2023-02-11T13:12:31;10.90;99.90
58582;DHT22;44361;51.476;5.700;2023-02-11T13:15:16;10.90;99.90
58582;DHT22;44361;51.476;5.700;2023-02-11T13:21:14;10.60;99.90
58582;DHT22;44361;51.476;5.700;2023-02-11T13:23:26;10.50;99.90
58582;DHT22;44361;51.476;5.700;2023-02-11T13:26:22;10.30;99.90
58582;DHT22;44361;51.476;5.700;2023-02-11T13:29:18;10.30;99.90
58582;DHT22;44361;51.476;5.700;2023-02-11T13:32:08;10.40;99.90
58582;DHT22;44361;51.476;5.700;2023-02-11T13:37:18;10.30;99.90
58582;DHT22;44361;51.476;5.700;2023-02-11T13:42:50;10.20;99.90
58582;DHT22;44361;51.476;5.700;2023-02-11T13:45:37;10.30;99.90
58582;DHT22;44361;51.476;5.700;2023-02-11T13:48:12;10.30;99.90
58582;DHT22;44361;51.476;5.700;2023-02-11T13:50:38;10.50;99.90
58582;DHT22;44361;51.476;5.700;2023-02-11T13:53:11;10.60;99.90
58582;DHT22;44361;51.476;5.700;2023-02-11T13:55:37;10.70;99.90
58582;DHT22;44361;51.476;5.700;2023-02-11T14:09:31;10.70;99.90
58582;DHT22;44361;51.476;5.700;2023-02-11T14:12:30;10.50;99.90
58582;DHT22;44361;51.476;5.700;2023-02-11T14:17:33;10.60;99.90
58582;DHT22;44361;51.476;5.700;2023-02-11T14:20:02;10.60;99.90
58582;DHT22;44361;51.476;5.700;2023-02-11T14:22:39;10.60;99.90
58582;DHT22;44361;51.476;5.700;2023-02-11T14:25:21;10.60;99.90
58582;DHT22;44361;51.476;5.700;2023-02-11T14:28:19;10.80;99.90
58582;DHT22;44361;51.476;5.700;2023-02-11T14:31:03;10.70;99.90
58582;DHT22;44361;51.476;5.700;2023-02-11T14:39:27;10.50;99.90
58582;DHT22;44361;51.476;5.700;2023-02-11T14:41:54;10.50;99.90
58582;DHT22;44361;51.476;5.700;2023-02-11T14:44:26;10.40;99.90
58582;DHT22;44361;51.476;5.700;2023-02-11T14:46:53;10.50;99.90
58582;DHT22;44361;51.476;5.700;2023-02-11T14:49:28;10.40;99.90
58582;DHT22;44361;51.476;5.700;2023-02-11T14:52:02;10.50;99.90
58582;DHT22;44361;51.476;5.700;2023-02-11T14:54:32;10.50;99.90
58582;DHT22;44361;51.476;5.700;2023-02-11T14:57:16;10.50;99.90
58582;DHT22;44361;51.476;5.700;2023-02-11T15:00:21;10.50;99.90
58582;DHT22;44361;51.476;5.700;2023-02-11T15:02:46;10.50;99.90
58582;DHT22;44361;51.476;5.700;2023-02-11T15:05:14;10.30;99.90
58582;DHT22;44361;51.476;5.700;2023-02-11T15:07:49;10.30;99.90
58582;DHT22;44361;51.476;5.700;2023-02-11T15:10:30;10.30;99.90
58582;DHT22;44361;51.476;5.700;2023-02-11T15:12:57;10.30;99.90
58582;DHT22;44361;51.476;5.700;2023-02-11T15:15:25;10.40;99.90
58582;DHT22;44361;51.476;5.700;2023-02-11T15:17:51;10.30;99.90
58582;DHT22;44361;51.476;5.700;2023-02-11T15:20:24;10.20;99.90
58582;DHT22;44361;51.476;5.700;2023-02-11T15:22:55;10.20;99.90
58582;DHT22;44361;51.476;5.700;2023-02-11T15:25:21;10.20;99.90
58582;DHT22;44361;51.476;5.700;2023-02-11T15:27:51;10.20;99.90
58582;DHT22;44361;51.476;5.700;2023-02-11T15:32:52;10.20;99.90
58582;DHT22;44361;51.476;5.700;2023-02-11T15:35:24;10.20;99.90
58582;DHT22;44361;51.476;5.700;2023-02-11T15:37:49;10.10;99.90
58582;DHT22;44361;51.476;5.700;2023-02-11T15:40:18;10.10;99.90
58582;DHT22;44361;51.476;5.700;2023-02-11T15:43:01;10.00;99.90
58582;DHT22;44361;51.476;5.700;2023-02-11T15:45:52;10.00;99.90
58582;DHT22;44361;51.476;5.700;2023-02-11T15:48:42;9.90;99.90
58582;DHT22;44361;51.476;5.700;2023-02-11T15:51:31;9.90;99.90
58582;DHT22;44361;51.476;5.700;2023-02-11T15:54:01;9.90;99.90
58582;DHT22;44361;51.476;5.700;2023-02-11T15:56:30;9.80;99.90
58582;DHT22;44361;51.476;5.700;2023-02-11T15:59:10;9.90;99.90
58582;DHT22;44361;51.476;5.700;2023-02-11T16:01:38;9.80;99.90
58582;DHT22;44361;51.476;5.700;2023-02-11T16:04:05;9.80;99.90
58582;DHT22;44361;51.476;5.700;2023-02-11T16:06:39;9.70;99.90
58582;DHT22;44361;51.476;5.700;2023-02-11T16:09:22;9.70;99.90
58582;DHT22;44361;51.476;5.700;2023-02-11T16:19:32;9.60;99.90
58582;DHT22;44361;51.476;5.700;2023-02-11T16:22:00;9.50;99.90
58582;DHT22;44361;51.476;5.700;2023-02-11T16:24:29;9.60;99.90
58582;DHT22;44361;51.476;5.700;2023-02-11T16:27:01;9.50;99.90
58582;DHT22;44361;51.476;5.700;2023-02-11T16:29:32;9.50;99.90
58582;DHT22;44361;51.476;5.700;2023-02-11T16:32:13;9.50;99.90
58582;DHT22;44361;51.476;5.700;2023-02-11T16:34:40;9.40;99.90
58582;DHT22;44361;51.476;5.700;2023-02-11T16:37:05;9.40;99.90
58582;DHT22;44361;51.476;5.700;2023-02-11T16:39:31;9.50;99.90
58582;DHT22;44361;51.476;5.700;2023-02-11T16:41:57;9.40;99.90
58582;DHT22;44361;51.476;5.700;2023-02-11T16:44:23;9.40;99.90
58582;DHT22;44361;51.476;5.700;2023-02-11T16:46:50;9.30;99.90
58582;DHT22;44361;51.476;5.700;2023-02-11T16:49:27;9.30;99.90
58582;DHT22;44361;51.476;5.700;2023-02-11T16:51:55;9.30;99.90
58582;DHT22;44361;51.476;5.700;2023-02-11T16:54:22;9.20;99.90
58582;DHT22;44361;51.476;5.700;2023-02-11T16:56:49;9.30;99.90
58582;DHT22;44361;51.476;5.700;2023-02-11T16:59:14;9.20;99.90
58582;DHT22;44361;51.476;5.700;2023-02-11T17:01:41;9.10;99.90
58582;DHT22;44361;51.476;5.700;2023-02-11T17:04:23;9.10;99.90
58582;DHT22;44361;51.476;5.700;2023-02-11T17:06:49;9.10;99.90
58582;DHT22;44361;51.476;5.700;2023-02-11T17:09:20;9.10;99.90
58582;DHT22;44361;51.476;5.700;2023-02-11T17:11:46;9.10;99.90
58582;DHT22;44361;51.476;5.700;2023-02-11T17:14:12;9.10;99.90
58582;DHT22;44361;51.476;5.700;2023-02-11T17:16:38;9.00;99.90
58582;DHT22;44361;51.476;5.700;2023-02-11T17:19:04;9.10;99.90
58582;DHT22;44361;51.476;5.700;2023-02-11T17:21:30;9.00;99.90
58582;DHT22;44361;51.476;5.700;2023-02-11T17:23:57;9.10;99.90
58582;DHT22;44361;51.476;5.700;2023-02-11T17:26:22;9.00;99.90
58582;DHT22;44361;51.476;5.700;2023-02-11T17:28:48;9.00;99.90
58582;DHT22;44361;51.476;5.700;2023-02-11T17:31:13;9.00;99.90
58582;DHT22;44361;51.476;5.700;2023-02-11T17:33:39;9.10;99.90
58582;DHT22;44361;51.476;5.700;2023-02-11T17:36:06;9.00;99.90
58582;DHT22;44361;51.476;5.700;2023-02-11T17:38:33;9.00;99.90
58582;DHT22;44361;51.476;5.700;2023-02-11T17:41:00;9.00;99.90
58582;DHT22;44361;51.476;5.700;2023-02-11T17:43:27;8.90;99.90
58582;DHT22;44361;51.476;5.700;2023-02-11T17:45:52;8.90;99.90
58582;DHT22;44361;51.476;5.700;2023-02-11T17:48:18;8.90;99.90
58582;DHT22;44361;51.476;5.700;2023-02-11T17:50:44;8.90;99.90
58582;DHT22;44361;51.476;5.700;2023-02-11T17:53:10;8.80;99.90
58582;DHT22;44361;51.476;5.700;2023-02-11T17:55:35;8.80;99.90
58582;DHT22;44361;51.476;5.700;2023-02-11T17:58:03;8.80;99.90
58582;DHT22;44361;51.476;5.700;2023-02-11T18:00:29;8.90;99.90
58582;DHT22;44361;51.476;5.700;2023-02-11T18:02:55;8.80;99.90
58582;DHT22;44361;51.476;5.700;2023-02-11T18:05:22;8.80;99.90
58582;DHT22;44361;51.476;5.700;2023-02-11T18:07:50;8.80;99.90
58582;DHT22;44361;51.476;5.700;2023-02-11T18:10:16;8.80;99.90
58582;DHT22;44361;51.476;5.700;2023-02-11T18:12:41;8.80;99.90
58582;DHT22;44361;51.476;5.700;2023-02-11T18:15:07;8.80;99.90